Time;durP1;ratioP1;P1;durP2;ratioP2;P2;SDS_P1;SDS_P2;PMS_P1;PMS_P2;Temp;Humidity;BMP_temperature;BMP_pressure;BME280_temperature;BME280_humidity;BME280_pressure;Samples;Min_cycle;Max_cycle;Signal;HPM_P1;HPM_P2
2021/08/04 00:01:48;;;;;;;19.67;6.43;;;;;;;17.97;63.82;100480.72;4970030;59;21190;-80
2021/08/04 00:06:53;;;;;;;16.40;6.25;;;;;;;18.02;63.78;100473.53;4987959;59;22315;-77
2021/08/04 00:11:59;;;;;;;12.77;5.17;;;;;;;18.04;63.85;100463.47;4953793;59;21187;-81
2021/08/04 00:17:05;;;;;;;10.33;4.57;;;;;;;18.01;63.83;100466.01;4905758;60;21131;-85
2021/08/04 00:22:10;;;;;;;11.60;4.33;;;;;;;17.97;64.02;100457.98;4905703;60;21735;-83
2021/08/04 00:27:17;;;;;;;13.57;4.07;;;;;;;17.84;63.72;100459.83;4905634;60;21233;-84
2021/08/04 00:32:23;;;;;;;9.87;3.90;;;;;;;17.68;63.78;100465.17;4905669;60;21236;-79
2021/08/04 00:37:29;;;;;;;12.10;3.43;;;;;;;17.59;63.98;100468.28;4905653;60;21230;-81
2021/08/04 00:42:35;;;;;;;7.17;3.47;;;;;;;17.58;64.17;100469.78;4905449;60;21198;-78
2021/08/04 00:47:42;;;;;;;12.65;4.03;;;;;;;17.58;64.25;100471.95;4914720;60;21217;-81
2021/08/04 00:52:49;;;;;;;17.77;4.10;;;;;;;17.47;63.86;100472.28;4914644;60;22079;-82
2021/08/04 00:57:55;;;;;;;12.13;5.37;;;;;;;17.41;64.35;100464.10;4828032;61;21214;-79
2021/08/04 01:03:04;;;;;;;12.90;4.33;;;;;;;17.32;64.17;100471.25;4794233;61;21564;-78
2021/08/04 01:08:19;;;;;;;40.10;20.10;;;;;;;17.16;64.44;100458.68;4778821;61;21180;-81
2021/08/04 01:13:35;;;;;;;13.07;5.00;;;;;;;17.21;65.33;100457.70;4833297;61;21762;-84
2021/08/04 01:18:54;;;;;;;8.70;4.20;;;;;;;17.30;65.40;100457.20;4944967;59;21182;-83
2021/08/04 01:24:25;;;;;;;15.50;6.13;;;;;;;17.09;64.88;100459.51;4940367;60;21174;-81
2021/08/04 01:29:31;;;;;;;12.07;4.17;;;;;;;16.81;65.48;100463.72;4944732;60;21569;-80
2021/08/04 01:34:38;;;;;;;21.30;7.87;;;;;;;16.59;66.21;100478.95;4945099;60;21222;-80
2021/08/04 01:39:45;;;;;;;17.43;5.80;;;;;;;16.50;66.51;100473.21;4941540;60;21233;-83
2021/08/04 01:44:54;;;;;;;12.67;4.37;;;;;;;16.65;67.57;100464.17;4934535;60;21584;-85
2021/08/04 01:50:00;;;;;;;3.67;3.27;;;;;;;16.85;68.22;100471.77;4934538;60;21202;-82
2021/08/04 01:55:09;;;;;;;8.87;3.00;;;;;;;16.92;67.92;100481.82;4934367;60;21248;-81
2021/08/04 02:00:15;;;;;;;8.63;3.60;;;;;;;16.88;68.04;100476.79;4934999;60;21213;-81
2021/08/04 02:05:22;;;;;;;7.70;3.17;;;;;;;16.92;68.74;100472.47;4936201;60;21568;-80
2021/08/04 02:10:56;;;;;;;9.20;3.63;;;;;;;17.06;68.91;100470.52;4927759;60;21220;-84
2021/08/04 02:16:07;;;;;;;;;;;;;;;17.15;68.72;100470.37;4851164;61;21680;-81
2021/08/04 02:21:14;;;;;;;7.30;3.17;;;;;;;17.16;68.92;100466.70;4769785;61;20537;-79
2021/08/04 02:26:23;;;;;;;5.77;3.43;;;;;;;17.13;68.69;100459.50;4770016;62;21186;-80
2021/08/04 02:31:29;;;;;;;5.37;3.27;;;;;;;17.04;68.42;100455.98;4943654;60;21168;-81
2021/08/04 02:36:35;;;;;;;7.27;3.80;;;;;;;17.04;68.69;100450.63;4944985;60;21128;-79
2021/08/04 02:41:41;;;;;;;8.27;3.87;;;;;;;16.98;68.51;100446.42;4944853;60;22241;-79
2021/08/04 02:46:49;;;;;;;9.67;3.50;;;;;;;16.93;68.50;100454.11;4909079;60;21203;-79
2021/08/04 02:51:55;;;;;;;13.07;4.03;;;;;;;16.89;68.65;100446.91;4943339;60;21195;-78
2021/08/04 02:57:01;;;;;;;18.67;4.27;;;;;;;16.83;68.82;100444.87;4944603;60;21176;-79
2021/08/04 03:02:07;;;;;;;13.20;4.50;;;;;;;16.80;69.13;100439.88;4954501;59;21124;-80
2021/08/04 03:07:14;;;;;;;5.10;3.97;;;;;;;16.71;69.00;100440.81;4996834;59;21187;-77
2021/08/04 03:12:20;;;;;;;9.33;3.83;;;;;;;16.71;69.74;100437.65;4907976;60;21152;-81
2021/08/04 03:17:26;;;;;;;12.97;3.60;;;;;;;16.77;70.07;100438.85;4907662;60;21098;-80
2021/08/04 03:22:32;;;;;;;5.60;3.13;;;;;;;16.79;70.08;100435.53;4907766;60;21162;-80
2021/08/04 03:27:37;;;;;;;9.53;4.07;;;;;;;16.68;70.01;100441.97;4907779;60;21161;-81
2021/08/04 03:32:43;;;;;;;8.00;4.03;;;;;;;16.58;70.83;100442.56;4907841;60;21202;-77
2021/08/04 03:37:49;;;;;;;17.57;3.97;;;;;;;16.56;71.42;100439.22;4907834;60;22148;-81
2021/08/04 03:42:55;;;;;;;9.37;4.20;;;;;;;16.54;71.26;100452.72;4907791;60;21177;-81
2021/08/04 03:48:01;;;;;;;9.57;3.87;;;;;;;16.63;71.72;100450.14;4907445;60;21098;-79
2021/08/04 03:53:07;;;;;;;12.87;4.00;;;;;;;16.69;71.77;100446.31;4907450;60;21197;-77
2021/08/04 03:58:12;;;;;;;6.83;3.70;;;;;;;16.69;72.10;100438.80;4901562;60;21490;-80
2021/08/04 04:03:19;;;;;;;11.43;4.63;;;;;;;16.54;71.74;100438.04;4882972;60;21487;-80
2021/08/04 04:08:25;;;;;;;5.70;3.77;;;;;;;16.52;72.38;100444.03;4848313;61;21197;-82
2021/08/04 04:13:32;;;;;;;15.97;4.10;;;;;;;16.55;72.46;100438.88;4848098;61;21471;-80
2021/08/04 04:18:38;;;;;;;8.40;4.33;;;;;;;16.56;72.48;100444.56;4848152;61;21186;-77
2021/08/04 04:23:43;;;;;;;11.30;4.30;;;;;;;16.64;72.87;100449.98;4936586;60;21214;-80
2021/08/04 04:28:49;;;;;;;15.57;4.30;;;;;;;16.63;72.71;100450.14;4936637;60;22459;-79
2021/08/04 04:33:55;;;;;;;18.63;4.10;;;;;;;16.59;72.77;100457.59;4887974;60;21130;-79
2021/08/04 04:39:01;;;;;;;14.10;4.23;;;;;;;16.64;72.82;100461.16;4795832;62;21702;-79
2021/08/04 04:44:07;;;;;;;6.03;4.07;;;;;;;16.73;72.83;100472.21;4945145;60;21191;-80
2021/08/04 04:49:13;;;;;;;12.10;4.73;;;;;;;16.74;72.84;100474.73;4944838;60;21167;-76
2021/08/04 04:54:19;;;;;;;8.60;3.93;;;;;;;16.77;73.15;100473.58;4944890;60;21160;-78
2021/08/04 04:59:26;;;;;;;6.07;4.30;;;;;;;16.75;73.07;100485.75;4945352;60;21133;-77
2021/08/04 05:04:32;;;;;;;6.37;3.90;;;;;;;16.74;73.19;100491.25;4962386;59;21175;-83
2021/08/04 05:09:38;;;;;;;3.60;3.30;;;;;;;16.74;73.16;100489.42;4987541;59;21215;-78
2021/08/04 05:14:44;;;;;;;12.07;4.13;;;;;;;16.75;73.43;100496.93;4986836;59;21236;-83
2021/08/04 05:19:50;;;;;;;8.83;3.57;;;;;;;16.70;73.55;100504.08;4987694;59;21203;-85
2021/08/04 05:24:56;;;;;;;6.00;3.40;;;;;;;16.63;73.80;100504.88;4987553;59;21140;-80
2021/08/04 05:30:02;;;;;;;6.13;3.20;;;;;;;16.62;73.92;100501.84;4983909;59;21156;-78
2021/08/04 05:35:08;;;;;;;13.20;4.70;;;;;;;16.67;74.06;100504.88;4977314;59;21156;-80
2021/08/04 05:40:15;;;;;;;18.57;4.17;;;;;;;16.72;74.39;100502.58;4976448;59;21207;-81
2021/08/04 05:45:21;;;;;;;15.13;4.50;;;;;;;16.74;74.37;100513.45;4976627;59;22496;-80
2021/08/04 05:50:27;;;;;;;12.47;4.27;;;;;;;16.75;74.58;100516.47;4971723;59;22383;-78
2021/08/04 05:55:34;;;;;;;17.63;5.73;;;;;;;16.73;74.40;100518.95;4954809;59;21665;-78
2021/08/04 06:00:39;;;;;;;11.57;6.30;;;;;;;16.71;74.41;100520.94;4977043;59;21877;-82
2021/08/04 06:05:45;;;;;;;10.47;4.40;;;;;;;16.65;74.73;100522.92;4977537;59;21132;-80
2021/08/04 06:10:50;;;;;;;16.83;4.67;;;;;;;16.69;75.41;100520.25;4966392;59;21290;-82
2021/08/04 06:15:57;;;;;;;10.70;4.00;;;;;;;16.69;75.64;100511.75;4961509;59;21203;-79
2021/08/04 06:21:03;;;;;;;16.10;6.07;;;;;;;16.72;75.43;100518.11;4907063;60;21103;-79
2021/08/04 06:26:09;;;;;;;10.40;5.10;;;;;;;16.67;75.27;100524.41;4903806;60;22331;-79
2021/08/04 06:31:14;;;;;;;13.03;5.40;;;;;;;16.61;75.45;100518.86;4907582;60;21162;-80
2021/08/04 06:36:20;;;;;;;11.97;5.30;;;;;;;16.57;75.79;100519.66;4907395;60;21201;-81
2021/08/04 06:41:26;;;;;;;13.90;4.80;;;;;;;16.62;75.83;100525.88;4907432;60;21198;-81
2021/08/04 06:46:37;;;;;;;14.33;5.10;;;;;;;16.65;75.92;100522.92;4904000;60;21185;-80
2021/08/04 06:51:43;;;;;;;6.80;5.10;;;;;;;16.63;76.18;100511.56;4897509;60;21173;-81
2021/08/04 06:56:49;;;;;;;24.67;16.67;;;;;;;16.56;76.91;100507.30;4898441;60;22409;-79
2021/08/04 07:01:54;;;;;;;13.77;8.50;;;;;;;16.68;77.47;100511.91;4898943;60;21122;-82
2021/08/04 07:07:03;;;;;;;23.50;13.43;;;;;;;16.77;77.46;100518.48;4840222;60;21210;-78
2021/08/04 07:12:11;;;;;;;20.47;9.67;;;;;;;16.83;77.29;100518.33;4800443;61;21272;-80
2021/08/04 07:17:16;;;;;;;19.90;4.30;;;;;;;16.95;77.59;100523.75;4887837;60;21295;-80
2021/08/04 07:22:22;;;;;;;8.10;4.30;;;;;;;17.06;77.45;100522.63;4895509;59;21290;-80
2021/08/04 07:27:28;;;;;;;10.60;4.13;;;;;;;17.12;77.31;100528.64;4875241;60;22471;-81
2021/08/04 07:32:34;;;;;;;11.83;4.93;;;;;;;17.11;77.21;100533.15;4889424;60;21548;-78
2021/08/04 07:37:40;;;;;;;10.23;3.87;;;;;;;17.13;77.71;100549.03;4907886;60;21188;-80
2021/08/04 07:42:49;;;;;;;11.03;3.83;;;;;;;17.14;77.62;100553.38;4932502;59;22184;-78
2021/08/04 07:47:55;;;;;;;7.00;3.63;;;;;;;17.18;77.34;100562.26;4944945;59;21608;-80
2021/08/04 07:53:01;;;;;;;7.60;3.83;;;;;;;17.13;77.48;100571.74;4944792;60;21191;-78
2021/08/04 07:58:07;;;;;;;7.87;3.57;;;;;;;17.17;77.48;100573.95;4899071;60;21125;-81
2021/08/04 08:03:13;;;;;;;7.53;3.80;;;;;;;17.23;77.34;100579.16;4900181;60;22125;-80
2021/08/04 08:08:19;;;;;;;11.27;3.87;;;;;;;17.25;77.32;100581.18;4902305;59;21271;-78
2021/08/04 08:13:24;;;;;;;11.47;4.50;;;;;;;17.23;77.61;100573.81;4908865;60;21704;-80
2021/08/04 08:18:30;;;;;;;6.20;4.07;;;;;;;17.21;77.54;100578.48;4897510;60;21226;-78
2021/08/04 08:23:36;;;;;;;12.57;4.33;;;;;;;17.22;77.87;100577.48;4897204;60;21238;-81
2021/08/04 08:28:42;;;;;;;11.47;4.00;;;;;;;17.27;78.21;100576.98;4897603;60;21573;-79
2021/08/04 08:33:48;;;;;;;9.37;3.87;;;;;;;17.36;78.15;100576.03;4898847;60;21215;-79
2021/08/04 08:38:53;;;;;;;14.77;4.63;;;;;;;17.46;79.10;100575.39;4898585;60;21203;-81
2021/08/04 08:44:00;;;;;;;10.57;3.67;;;;;;;17.56;78.71;100572.10;4898796;60;21200;-84
2021/08/04 08:49:07;;;;;;;12.20;4.00;;;;;;;17.81;79.13;100573.86;4899558;60;21144;-83
2021/08/04 08:54:13;;;;;;;5.97;3.83;;;;;;;18.03;78.49;100560.83;4910193;60;21240;-83
2021/08/04 08:59:18;;;;;;;8.87;3.80;;;;;;;18.32;78.38;100563.03;4916531;59;21215;-84
2021/08/04 09:04:24;;;;;;;4.67;3.63;;;;;;;18.52;77.63;100574.55;4903313;60;21207;-87
2021/08/04 09:09:34;;;;;;;44.05;4.58;;;;;;;18.71;77.04;100562.67;4886921;59;21219;-82
2021/08/04 09:14:47;;;;;;;4.70;3.70;;;;;;;18.92;76.68;100569.67;4934413;59;21132;-85
2021/08/04 09:19:52;;;;;;;6.78;3.58;;;;;;;19.09;76.25;100569.63;4914594;59;21231;-82
2021/08/04 09:25:07;;;;;;;4.53;3.70;;;;;;;19.30;76.36;100569.86;4936539;60;21208;-84
2021/08/04 09:30:22;;;;;;;8.98;3.58;;;;;;;19.46;75.60;100557.72;4937190;59;21149;-84
2021/08/04 09:35:27;;;;;;;13.70;5.15;;;;;;;19.72;76.17;100553.91;4936118;58;21184;-82
2021/08/04 09:40:33;;;;;;;8.70;5.20;;;;;;;19.95;76.01;100553.43;4943575;60;21183;-83
2021/08/04 09:45:54;;;;;;;5.95;3.80;;;;;;;20.07;75.28;100555.18;4945018;60;21199;-79
2021/08/04 09:51:02;;;;;;;6.75;4.50;;;;;;;20.23;75.38;100555.05;4943675;60;21230;-80
2021/08/04 09:56:25;;;;;;;9.10;4.65;;;;;;;20.35;74.70;100550.91;4944818;60;21241;-80
2021/08/04 10:01:43;;;;;;;7.72;4.97;;;;;;;20.35;74.52;100542.34;4944030;60;21175;-79
2021/08/04 10:06:49;;;;;;;9.83;5.10;;;;;;;20.44;74.11;100539.13;4944825;60;21245;-80
2021/08/04 10:11:56;;;;;;;5.40;4.50;;;;;;;20.66;75.30;100530.66;4944900;60;21179;-80
2021/08/04 10:17:06;;;;;;;10.48;4.85;;;;;;;20.93;74.44;100531.91;4944802;60;21200;-79
2021/08/04 10:22:12;;;;;;;5.55;4.70;;;;;;;21.10;73.25;100533.34;4932372;60;21664;-80
2021/08/04 10:27:17;;;;;;;14.23;4.33;;;;;;;21.18;72.50;100529.23;4911802;60;21224;-80
2021/08/04 10:32:23;;;;;;;10.00;4.03;;;;;;;21.15;72.30;100524.22;4934825;59;21154;-80
2021/08/04 10:37:30;;;;;;;7.65;3.80;;;;;;;21.23;71.33;100524.16;4951969;59;21167;-79
2021/08/04 10:42:42;;;;;;;7.80;4.08;;;;;;;21.34;72.48;100526.36;4944570;60;21242;-80
2021/08/04 10:47:48;;;;;;;14.20;5.12;;;;;;;21.50;71.66;100524.47;4925990;60;21155;-80
2021/08/04 10:53:05;;;;;;;8.58;4.47;;;;;;;21.75;71.84;100518.53;4936690;60;21540;-79
2021/08/04 10:58:11;;;;;;;10.25;5.00;;;;;;;22.12;71.28;100516.64;4955042;60;21129;-79
2021/08/04 11:03:44;;;;;;;6.35;3.27;;;;;;;22.43;69.67;100511.72;4955071;60;21219;-80
2021/08/04 11:09:14;;;;;;;4.03;3.12;;;;;;;22.68;68.18;100509.91;4843524;61;21224;-80
2021/08/04 11:14:49;;;;;;;4.45;3.30;;;;;;;22.68;65.93;100506.69;4858428;61;21228;-79
2021/08/04 11:20:14;;;;;;;6.67;2.77;;;;;;;22.65;65.79;100504.90;4858394;61;21242;-79
2021/08/04 11:25:38;;;;;;;3.52;3.22;;;;;;;22.41;65.60;100511.59;4656909;63;22174;-80
2021/08/04 11:30:54;;;;;;;9.23;4.55;;;;;;;22.63;65.01;100506.44;4858980;61;21183;-80
2021/08/04 11:36:15;;;;;;;8.18;4.03;;;;;;;22.63;65.16;100500.22;4858931;61;21134;-80
2021/08/04 11:41:34;;;;;;;17.30;4.80;;;;;;;22.96;65.82;100503.14;4856316;61;21484;-80
2021/08/04 11:46:50;;;;;;;7.80;3.62;;;;;;;23.14;64.61;100499.39;4963883;60;21187;-80
2021/08/04 11:52:09;;;;;;;6.10;3.22;;;;;;;23.22;64.10;100493.80;4963774;60;22143;-79
2021/08/04 11:57:28;;;;;;;4.25;2.87;;;;;;;23.47;64.21;100488.20;4827328;61;21198;-79
2021/08/04 12:02:37;;;;;;;3.52;2.37;;;;;;;23.64;61.84;100487.34;4963787;60;21120;-80
2021/08/04 12:07:44;;;;;;;6.78;2.90;;;;;;;23.73;61.68;100487.44;4961785;59;21195;-79
2021/08/04 12:12:54;;;;;;;5.37;2.47;;;;;;;23.69;60.68;100486.70;4778537;62;21209;-80
2021/08/04 12:18:06;;;;;;;4.42;3.02;;;;;;;23.60;59.84;100485.23;4799498;61;21107;-79
2021/08/04 12:23:18;;;;;;;6.70;2.53;;;;;;;23.47;58.33;100482.80;4849839;61;21111;-79
2021/08/04 12:28:23;;;;;;;13.13;3.60;;;;;;;23.35;58.98;100474.15;4786705;61;21165;-79
2021/08/04 12:33:44;;;;;;;7.55;2.37;;;;;;;23.27;58.10;100470.27;4818640;61;21163;-79
2021/08/04 12:38:44;;;;;;;3.60;3.30;;;;;;;23.14;57.75;100472.41;4941739;60;21140;-79
2021/08/04 12:43:56;;;;;;;9.88;3.70;;;;;;;22.98;57.70;100474.94;4943735;60;21129;-79
2021/08/04 12:48:58;;;;;;;5.55;3.52;;;;;;;22.85;57.95;100476.23;4937796;60;21147;-79
2021/08/04 12:54:06;;;;;;;6.17;2.62;;;;;;;22.83;58.24;100474.75;4933062;60;21662;-80
2021/08/04 12:59:19;;;;;;;61.18;7.12;;;;;;;22.81;58.63;100476.30;4932734;60;21183;-79
2021/08/04 13:04:27;;;;;;;9.73;3.73;;;;;;;22.85;59.44;100474.87;4954014;60;21180;-79
2021/08/04 13:09:40;;;;;;;3.45;2.77;;;;;;;22.91;60.29;100472.73;4954349;60;21147;-79
2021/08/04 13:15:17;;;;;;;8.63;3.27;;;;;;;22.99;60.51;100469.02;4944491;60;22451;-79
2021/08/04 13:20:27;;;;;;;6.50;3.50;;;;;;;22.99;60.33;100478.47;4943614;60;21211;-79
2021/08/04 13:25:46;;;;;;;4.62;3.62;;;;;;;23.01;60.74;100473.70;4945188;60;21243;-79
2021/08/04 13:31:01;;;;;;;3.80;2.87;;;;;;;23.04;60.80;100470.61;4846264;61;21214;-79
2021/08/04 13:36:08;;;;;;;9.33;3.60;;;;;;;23.02;60.53;100472.16;4846323;60;21430;-79
2021/08/04 13:41:14;;;;;;;11.88;4.08;;;;;;;23.02;60.71;100472.67;4846184;61;21198;-79
2021/08/04 13:46:19;;;;;;;15.03;4.37;;;;;;;23.02;59.88;100472.67;4846289;61;21131;-79
2021/08/04 13:51:29;;;;;;;10.45;3.87;;;;;;;22.82;59.78;100468.52;4846320;61;21189;-79
2021/08/04 13:56:34;;;;;;;7.87;3.08;;;;;;;22.67;60.04;100469.97;4846343;61;21131;-79
2021/08/04 14:01:40;;;;;;;4.37;2.90;;;;;;;22.64;61.04;100473.58;4846314;61;21524;-79
2021/08/04 14:06:46;;;;;;;8.15;3.02;;;;;;;22.79;61.14;100479.19;4844389;61;21239;-79
2021/08/04 14:11:52;;;;;;;4.37;2.70;;;;;;;22.99;60.66;100482.00;4821244;61;21150;-79
2021/08/04 14:16:58;;;;;;;3.05;2.60;;;;;;;23.20;60.64;100472.96;4808566;60;21214;-80
2021/08/04 14:22:04;;;;;;;5.78;4.10;;;;;;;23.24;59.27;100474.20;4809158;61;21166;-80
2021/08/04 14:27:11;;;;;;;5.87;3.02;;;;;;;23.38;59.60;100474.55;4790282;61;21204;-80
2021/08/04 14:32:16;;;;;;;4.40;3.20;;;;;;;23.52;57.95;100473.30;4809046;61;21150;-87
2021/08/04 14:37:22;;;;;;;4.58;2.30;;;;;;;23.65;57.15;100463.86;4789891;61;21623;-80
2021/08/04 14:42:28;;;;;;;7.70;3.20;;;;;;;23.72;56.79;100471.44;4808306;60;21463;-79
2021/08/04 14:47:34;;;;;;;13.58;3.62;;;;;;;23.62;56.73;100466.45;4944954;59;21188;-79
2021/08/04 14:52:40;;;;;;;3.58;2.75;;;;;;;23.48;55.67;100469.61;4809408;61;21627;-78
2021/08/04 14:57:46;;;;;;;7.15;2.10;;;;;;;23.25;55.81;100461.02;4809317;61;21212;-79
2021/08/04 15:02:52;;;;;;;8.25;2.90;;;;;;;23.16;56.21;100459.55;4809271;61;22255;-79
2021/08/04 15:07:58;;;;;;;6.10;2.02;;;;;;;23.11;56.37;100456.62;4809905;61;21149;-79
2021/08/04 15:13:04;;;;;;;11.40;2.55;;;;;;;23.10;56.35;100454.44;4952439;60;22115;-79
2021/08/04 15:18:09;;;;;;;11.97;2.50;;;;;;;23.10;56.47;100444.98;4955783;59;21647;-79
2021/08/04 15:23:15;;;;;;;18.12;2.98;;;;;;;23.08;56.62;100440.83;4955837;60;21178;-79
2021/08/04 15:28:21;;;;;;;6.47;2.42;;;;;;;23.10;56.95;100437.41;4955657;59;21190;-79
2021/08/04 15:33:28;;;;;;;9.73;3.00;;;;;;;23.08;57.06;100436.78;4954900;60;21274;-79
2021/08/04 15:38:37;;;;;;;6.00;2.98;;;;;;;23.11;57.20;100437.73;4953325;60;21125;-79
2021/08/04 15:43:43;;;;;;;9.68;2.47;;;;;;;23.12;57.01;100435.35;4953402;60;21184;-79
2021/08/04 15:48:49;;;;;;;10.88;2.55;;;;;;;23.11;57.15;100431.81;4955669;60;21237;-79
2021/08/04 15:53:55;;;;;;;2.27;2.17;;;;;;;23.17;57.27;100433.41;4856930;61;21107;-79
2021/08/04 15:59:00;;;;;;;4.37;1.50;;;;;;;23.28;56.72;100434.16;4856760;60;21185;-80
2021/08/04 16:04:06;;;;;;;3.92;1.60;;;;;;;23.43;54.63;100428.06;4856489;61;21235;-79
2021/08/04 16:09:12;;;;;;;1.92;1.40;;;;;;;23.59;54.78;100429.58;4856751;61;21158;-79
2021/08/04 16:14:18;;;;;;;4.78;2.05;;;;;;;23.76;53.32;100433.54;4847563;61;21135;-78
2021/08/04 16:19:25;;;;;;;3.35;1.50;;;;;;;23.86;53.48;100429.90;4845886;61;21185;-78
2021/08/04 16:24:31;;;;;;;2.98;1.90;;;;;;;23.90;52.21;100425.75;4848909;61;22165;-79
2021/08/04 16:29:37;;;;;;;7.85;2.52;;;;;;;23.90;51.92;100417.65;4944932;60;21692;-78
2021/08/04 16:34:42;;;;;;;4.28;2.55;;;;;;;23.94;52.78;100404.56;4944488;60;22227;-78
2021/08/04 16:39:49;;;;;;;12.20;3.00;;;;;;;23.95;52.52;100412.46;4945308;60;21558;-79
2021/08/04 16:44:55;;;;;;;4.62;2.77;;;;;;;23.93;52.86;100421.81;4945186;60;21179;-81
2021/08/04 16:50:02;;;;;;;4.35;2.55;;;;;;;23.86;52.55;100423.14;4944329;60;21476;-80
2021/08/04 16:55:09;;;;;;;3.10;2.65;;;;;;;23.84;53.12;100424.70;4944935;60;21183;-80
2021/08/04 17:00:24;;;;;;;9.48;2.60;;;;;;;23.79;52.82;100416.41;4945249;60;21220;-81
2021/08/04 17:05:24;;;;;;;5.42;3.12;;;;;;;23.73;53.29;100423.14;4943991;60;21179;-80
2021/08/04 17:10:30;;;;;;;3.37;2.70;;;;;;;23.69;53.47;100428.64;4945208;60;21136;-80
2021/08/04 17:15:37;;;;;;;3.25;2.62;;;;;;;23.62;53.32;100432.70;4983652;59;21219;-80
2021/08/04 17:20:43;;;;;;;11.20;3.10;;;;;;;23.54;53.41;100430.18;4987487;59;21192;-81
2021/08/04 17:25:49;;;;;;;16.67;3.20;;;;;;;23.45;53.38;100440.84;4987587;59;21191;-83
2021/08/04 17:30:55;;;;;;;6.35;2.98;;;;;;;23.35;53.82;100445.30;4987486;59;21226;-80
2021/08/04 17:36:00;;;;;;;18.55;4.42;;;;;;;23.26;54.28;100441.61;4987723;59;21211;-79
2021/08/04 17:41:06;;;;;;;12.25;3.67;;;;;;;23.18;54.74;100444.51;4987520;59;21187;-80
2021/08/04 17:46:14;;;;;;;16.97;3.58;;;;;;;23.14;55.29;100440.03;4987462;59;21128;-80
2021/08/04 17:51:20;;;;;;;34.75;4.37;;;;;;;23.08;55.48;100443.01;4987629;59;21124;-81
2021/08/04 17:56:26;;;;;;;19.02;3.90;;;;;;;23.03;55.87;100444.67;4987368;59;21209;-81
2021/08/04 18:01:32;;;;;;;28.30;4.40;;;;;;;22.92;55.92;100448.75;4987414;59;21191;-80
2021/08/04 18:06:38;;;;;;;29.40;5.03;;;;;;;22.84;56.17;100448.11;4987531;59;21210;-83
2021/08/04 18:11:44;;;;;;;15.55;5.12;;;;;;;22.75;56.36;100450.95;4987409;59;21212;-81
2021/08/04 18:16:50;;;;;;;13.00;3.87;;;;;;;22.65;56.68;100459.06;4987572;59;21260;-82
2021/08/04 18:21:55;;;;;;;11.70;3.65;;;;;;;22.55;56.88;100463.99;4987488;59;21178;-81
2021/08/04 18:27:02;;;;;;;5.60;4.30;;;;;;;22.48;57.24;100460.41;4987545;59;21128;-80
2021/08/04 18:32:08;;;;;;;11.73;4.08;;;;;;;22.44;57.62;100464.04;4985461;59;21625;-80
2021/08/04 18:37:14;;;;;;;10.78;6.33;;;;;;;22.30;58.11;100475.24;4986759;59;21169;-81
2021/08/04 18:42:19;;;;;;;22.48;7.33;;;;;;;22.26;58.53;100477.17;4987378;59;21214;-81
2021/08/04 18:47:25;;;;;;;10.58;4.58;;;;;;;22.23;59.23;100482.43;4987521;59;21175;-79
2021/08/04 18:52:31;;;;;;;13.40;4.90;;;;;;;22.07;59.29;100481.37;4987369;59;21214;-78
2021/08/04 18:57:37;;;;;;;12.68;4.67;;;;;;;21.88;59.71;100483.33;4987329;59;21259;-80
2021/08/04 19:02:55;;;;;;;16.82;4.83;;;;;;;21.71;60.19;100479.55;4987262;59;21136;-79
2021/08/04 19:08:03;;;;;;;7.90;4.17;;;;;;;21.62;60.61;100473.98;4986727;59;21091;-79
2021/08/04 19:13:09;;;;;;;27.82;5.58;;;;;;;21.50;60.92;100478.72;4987157;59;21217;-81
2021/08/04 19:18:15;;;;;;;20.48;4.85;;;;;;;21.38;61.21;100478.39;4987344;59;21126;-77
2021/08/04 19:23:22;;;;;;;14.65;4.53;;;;;;;21.25;61.41;100482.25;4987036;59;21193;-78
2021/08/04 19:28:27;;;;;;;10.40;3.98;;;;;;;21.21;62.26;100480.48;4986341;59;21214;-79
2021/08/04 19:33:35;;;;;;;14.55;4.45;;;;;;;21.21;62.46;100486.36;4985904;59;21259;-78
2021/08/04 19:38:40;;;;;;;18.23;4.25;;;;;;;21.11;62.71;100489.30;4996424;59;21673;-78
2021/08/04 19:43:46;;;;;;;11.43;4.08;;;;;;;21.14;63.23;100492.97;4996267;59;21120;-80
2021/08/04 19:48:52;;;;;;;16.85;3.95;;;;;;;21.21;63.32;100483.67;4996422;59;21175;-80
2021/08/04 19:53:58;;;;;;;22.40;4.40;;;;;;;21.13;63.24;100484.57;4996828;59;21190;-80
2021/08/04 19:59:03;;;;;;;7.15;4.20;;;;;;;21.10;63.59;100482.77;4908054;60;21622;-78
2021/08/04 20:04:09;;;;;;;4.17;3.77;;;;;;;21.08;63.94;100481.63;4907488;60;21500;-78
2021/08/04 20:09:15;;;;;;;26.65;10.65;;;;;;;21.08;63.99;100478.94;4907589;60;21473;-79
2021/08/04 20:14:21;;;;;;;15.50;6.58;;;;;;;20.93;63.54;100478.93;4986630;59;21633;-81
2021/08/04 20:19:27;;;;;;;9.33;6.08;;;;;;;20.75;63.77;100483.05;4955258;60;21527;-78
2021/08/04 20:24:33;;;;;;;10.35;6.37;;;;;;;20.66;64.30;100479.60;4856312;61;21165;-79
2021/08/04 20:29:39;;;;;;;10.20;5.67;;;;;;;20.54;64.44;100475.20;4856486;61;21498;-78
2021/08/04 20:34:46;;;;;;;29.77;8.03;;;;;;;20.39;64.44;100479.73;4856411;61;21198;-79
2021/08/04 20:39:53;;;;;;;21.35;5.60;;;;;;;20.23;64.68;100476.66;4856503;61;21218;-78
2021/08/04 20:44:58;;;;;;;16.32;4.75;;;;;;;20.15;65.35;100477.26;4856610;61;21171;-73
2021/08/04 20:50:05;;;;;;;8.10;3.83;;;;;;;20.11;65.60;100478.13;4856514;61;21578;-77
2021/08/04 20:55:12;;;;;;;9.58;4.45;;;;;;;19.99;65.52;100482.27;4856637;61;21876;-74
2021/08/04 21:00:18;;;;;;;10.32;5.45;;;;;;;19.79;65.66;100477.05;4856508;61;21127;-75
2021/08/04 21:05:24;;;;;;;7.12;4.70;;;;;;;19.72;66.43;100477.42;4856481;61;21177;-75
2021/08/04 21:10:30;;;;;;;11.78;3.60;;;;;;;19.81;66.99;100477.20;4856617;61;21157;-76
2021/08/04 21:15:35;;;;;;;9.15;4.30;;;;;;;19.92;67.05;100475.94;4960261;59;21181;-77
2021/08/04 21:20:42;;;;;;;18.15;4.20;;;;;;;20.00;67.13;100464.64;4911728;59;21193;-77
2021/08/04 21:25:47;;;;;;;4.47;3.80;;;;;;;20.02;66.76;100463.92;4918616;60;21608;-77
2021/08/04 21:30:53;;;;;;;13.88;3.77;;;;;;;19.93;66.49;100460.99;4831726;61;21191;-76
2021/08/04 21:35:59;;;;;;;18.92;4.45;;;;;;;19.76;66.46;100459.95;4831644;61;21125;-76
2021/08/04 21:41:05;;;;;;;8.03;3.72;;;;;;;19.59;66.78;100465.45;4831747;61;21671;-75
2021/08/04 21:46:10;;;;;;;5.15;3.30;;;;;;;19.56;67.47;100473.84;4827031;61;21749;-76
2021/08/04 21:51:17;;;;;;;11.80;3.72;;;;;;;19.61;67.58;100473.32;4821156;61;21129;-76
2021/08/04 21:56:23;;;;;;;21.07;5.35;;;;;;;19.54;67.29;100470.53;4821111;61;21552;-75
2021/08/04 22:01:30;;;;;;;8.78;4.25;;;;;;;19.30;67.33;100471.98;4837863;60;21268;-76
2021/08/04 22:06:35;;;;;;;9.40;4.90;;;;;;;19.23;67.94;100478.56;4897414;60;21209;-77
2021/08/04 22:11:41;;;;;;;8.20;4.75;;;;;;;19.07;67.88;100473.79;4897493;60;21196;-75
2021/08/04 22:16:46;;;;;;;14.93;5.40;;;;;;;18.95;67.93;100468.80;4854002;60;21130;-74
2021/08/04 22:21:52;;;;;;;11.60;4.78;;;;;;;18.83;68.02;100472.88;4799637;61;22405;-75
2021/08/04 22:26:58;;;;;;;4.60;4.20;;;;;;;18.84;68.83;100469.69;4799525;61;21497;-73
2021/08/04 22:32:04;;;;;;;7.97;4.87;;;;;;;18.92;68.81;100473.19;4799760;61;22455;-77
2021/08/04 22:37:10;;;;;;;9.50;5.40;;;;;;;18.92;68.54;100466.48;4799609;60;21733;-75
2021/08/04 22:42:16;;;;;;;6.33;4.95;;;;;;;18.79;68.16;100469.39;4934231;59;21148;-77
2021/08/04 22:47:22;;;;;;;10.05;5.53;;;;;;;18.65;68.33;100472.76;4933952;59;21689;-74
2021/08/04 22:52:28;;;;;;;5.62;4.42;;;;;;;18.64;68.88;100466.56;4914706;60;21199;-75
2021/08/04 22:57:34;;;;;;;10.18;4.50;;;;;;;18.67;69.08;100452.83;4936299;60;22453;-73
2021/08/04 23:02:41;;;;;;;6.62;4.85;;;;;;;18.73;69.48;100456.67;4936322;60;22432;-74
2021/08/04 23:07:46;;;;;;;11.22;3.98;;;;;;;18.74;69.24;100454.33;4935111;60;21498;-74
2021/08/04 23:12:52;;;;;;;8.08;4.37;;;;;;;18.66;69.13;100452.50;4898808;60;21636;-76
2021/08/04 23:17:58;;;;;;;4.97;3.80;;;;;;;18.59;69.22;100448.36;4898814;58;21203;-76
2021/08/04 23:23:04;;;;;;;5.12;4.30;;;;;;;18.56;68.98;100446.48;4897680;60;21210;-75
2021/08/04 23:28:10;;;;;;;8.23;4.78;;;;;;;18.53;69.23;100444.14;4897344;60;21468;-75
2021/08/04 23:33:16;;;;;;;8.33;5.10;;;;;;;18.47;69.13;100453.72;4898268;60;21195;-75
2021/08/04 23:38:21;;;;;;;9.75;5.58;;;;;;;18.28;68.92;100455.43;4898999;60;21258;-76
2021/08/04 23:43:27;;;;;;;5.15;4.70;;;;;;;18.13;69.43;100447.25;4899017;59;21227;-74